sensor_id;sensor_type;location;lat;lon;timestamp;pressure;altitude;pressure_sealevel;temperature;humidity
74372;BME280;62885;51.374;6.170;2023-05-29T00:00:41;101777.72;;;13.78;81.68
74372;BME280;62885;51.374;6.170;2023-05-29T00:03:09;101781.81;;;13.71;82.56
74372;BME280;62885;51.374;6.170;2023-05-29T00:05:35;101781.28;;;13.66;82.49
74372;BME280;62885;51.374;6.170;2023-05-29T00:08:01;101782.78;;;13.70;82.53
74372;BME280;62885;51.374;6.170;2023-05-29T00:10:26;101780.09;;;13.70;82.46
74372;BME280;62885;51.374;6.170;2023-05-29T00:12:53;101778.84;;;13.63;83.04
74372;BME280;62885;51.374;6.170;2023-05-29T00:15:18;101785.25;;;13.73;82.97
74372;BME280;62885;51.374;6.170;2023-05-29T00:17:43;101783.56;;;13.59;83.46
74372;BME280;62885;51.374;6.170;2023-05-29T00:20:09;101794.97;;;13.50;84.42
74372;BME280;62885;51.374;6.170;2023-05-29T00:22:36;101797.88;;;13.34;85.47
74372;BME280;62885;51.374;6.170;2023-05-29T00:25:05;101800.03;;;13.29;85.51
74372;BME280;62885;51.374;6.170;2023-05-29T00:27:30;101803.91;;;13.38;85.18
74372;BME280;62885;51.374;6.170;2023-05-29T00:29:57;101807.91;;;13.32;85.68
74372;BME280;62885;51.374;6.170;2023-05-29T00:32:22;101805.94;;;13.34;85.78
74372;BME280;62885;51.374;6.170;2023-05-29T00:34:48;101800.88;;;13.17;86.41
74372;BME280;62885;51.374;6.170;2023-05-29T00:37:13;101813.13;;;13.08;87.85
74372;BME280;62885;51.374;6.170;2023-05-29T00:39:38;101813.41;;;12.91;87.92
74372;BME280;62885;51.374;6.170;2023-05-29T00:42:04;101804.47;;;12.91;88.63
74372;BME280;62885;51.374;6.170;2023-05-29T00:44:29;101815.19;;;12.78;89.24
74372;BME280;62885;51.374;6.170;2023-05-29T00:46:55;101825.53;;;12.84;89.94
74372;BME280;62885;51.374;6.170;2023-05-29T00:49:22;101814.25;;;12.79;89.55
74372;BME280;62885;51.374;6.170;2023-05-29T00:51:48;101813.84;;;12.58;90.91
74372;BME280;62885;51.374;6.170;2023-05-29T00:54:24;101811.41;;;12.68;90.56
74372;BME280;62885;51.374;6.170;2023-05-29T00:56:51;101823.47;;;12.75;91.06
74372;BME280;62885;51.374;6.170;2023-05-29T00:59:17;101817.28;;;12.60;91.47
74372;BME280;62885;51.374;6.170;2023-05-29T01:01:47;101822.03;;;12.57;91.24
74372;BME280;62885;51.374;6.170;2023-05-29T01:04:15;101829.34;;;12.41;92.83
74372;BME280;62885;51.374;6.170;2023-05-29T01:06:40;101828.53;;;12.53;92.40
74372;BME280;62885;51.374;6.170;2023-05-29T01:09:06;101829.41;;;12.53;92.30
74372;BME280;62885;51.374;6.170;2023-05-29T01:14:38;101823.72;;;12.31;92.20
74372;BME280;62885;51.374;6.170;2023-05-29T01:17:19;101836.22;;;12.18;93.02
74372;BME280;62885;51.374;6.170;2023-05-29T01:20:08;101842.38;;;12.06;93.29
74372;BME280;62885;51.374;6.170;2023-05-29T01:25:42;101841.63;;;12.04;93.29
74372;BME280;62885;51.374;6.170;2023-05-29T01:28:12;101835.41;;;11.89;93.99
74372;BME280;62885;51.374;6.170;2023-05-29T01:30:39;101840.69;;;11.90;93.72
74372;BME280;62885;51.374;6.170;2023-05-29T01:33:05;101840.13;;;11.85;92.80
74372;BME280;62885;51.374;6.170;2023-05-29T01:35:32;101840.94;;;11.72;93.81
74372;BME280;62885;51.374;6.170;2023-05-29T01:37:57;101848.47;;;11.81;93.39
74372;BME280;62885;51.374;6.170;2023-05-29T01:40:23;101849.41;;;11.80;93.28
74372;BME280;62885;51.374;6.170;2023-05-29T01:42:49;101851.97;;;11.67;92.10
74372;BME280;62885;51.374;6.170;2023-05-29T01:45:15;101849.38;;;11.66;91.62
74372;BME280;62885;51.374;6.170;2023-05-29T01:47:42;101852.25;;;11.63;91.50
74372;BME280;62885;51.374;6.170;2023-05-29T01:50:08;101856.56;;;11.51;92.21
74372;BME280;62885;51.374;6.170;2023-05-29T01:52:36;101856.84;;;11.46;91.43
74372;BME280;62885;51.374;6.170;2023-05-29T01:55:01;101857.81;;;11.45;91.98
74372;BME280;62885;51.374;6.170;2023-05-29T01:57:27;101855.28;;;11.42;91.00
74372;BME280;62885;51.374;6.170;2023-05-29T01:59:53;101860.56;;;11.44;90.64
74372;BME280;62885;51.374;6.170;2023-05-29T02:02:21;101859.22;;;11.37;90.88
74372;BME280;62885;51.374;6.170;2023-05-29T02:04:47;101861.63;;;11.41;89.40
74372;BME280;62885;51.374;6.170;2023-05-29T02:07:12;101867.78;;;11.13;90.42
74372;BME280;62885;51.374;6.170;2023-05-29T02:09:38;101871.25;;;11.16;89.89
74372;BME280;62885;51.374;6.170;2023-05-29T02:12:03;101870.38;;;11.15;90.01
74372;BME280;62885;51.374;6.170;2023-05-29T02:14:29;101864.66;;;11.21;89.48
74372;BME280;62885;51.374;6.170;2023-05-29T02:16:57;101866.59;;;11.03;89.65
74372;BME280;62885;51.374;6.170;2023-05-29T02:19:22;101867.19;;;11.08;89.47
74372;BME280;62885;51.374;6.170;2023-05-29T02:21:50;101871.31;;;11.00;88.86
74372;BME280;62885;51.374;6.170;2023-05-29T02:24:15;101858.50;;;11.05;88.66
74372;BME280;62885;51.374;6.170;2023-05-29T02:26:40;101865.25;;;10.96;88.83
74372;BME280;62885;51.374;6.170;2023-05-29T02:29:07;101865.66;;;11.04;89.00
74372;BME280;62885;51.374;6.170;2023-05-29T02:31:33;101870.25;;;11.02;88.32
74372;BME280;62885;51.374;6.170;2023-05-29T02:33:58;101873.19;;;10.98;88.39
74372;BME280;62885;51.374;6.170;2023-05-29T02:36:24;101869.16;;;10.91;88.48
74372;BME280;62885;51.374;6.170;2023-05-29T02:38:49;101870.50;;;10.98;87.82
74372;BME280;62885;51.374;6.170;2023-05-29T02:41:15;101869.09;;;10.77;88.45
74372;BME280;62885;51.374;6.170;2023-05-29T02:43:40;101871.44;;;10.83;88.13
74372;BME280;62885;51.374;6.170;2023-05-29T02:46:05;101877.66;;;10.83;87.50
74372;BME280;62885;51.374;6.170;2023-05-29T02:48:31;101869.47;;;10.70;88.60
74372;BME280;62885;51.374;6.170;2023-05-29T02:50:56;101876.97;;;10.64;88.09
74372;BME280;62885;51.374;6.170;2023-05-29T02:53:21;101880.81;;;10.60;88.53
74372;BME280;62885;51.374;6.170;2023-05-29T02:55:48;101883.09;;;10.66;88.04
74372;BME280;62885;51.374;6.170;2023-05-29T02:58:13;101890.03;;;10.54;88.07
74372;BME280;62885;51.374;6.170;2023-05-29T03:00:41;101885.03;;;10.48;88.44
74372;BME280;62885;51.374;6.170;2023-05-29T03:03:06;101891.50;;;10.44;88.25
74372;BME280;62885;51.374;6.170;2023-05-29T03:05:32;101896.50;;;10.50;88.01
74372;BME280;62885;51.374;6.170;2023-05-29T03:07:57;101896.00;;;10.59;87.40
74372;BME280;62885;51.374;6.170;2023-05-29T03:10:22;101903.94;;;10.45;88.04
74372;BME280;62885;51.374;6.170;2023-05-29T03:12:48;101900.91;;;10.51;87.16
74372;BME280;62885;51.374;6.170;2023-05-29T03:15:13;101896.78;;;10.46;87.74
74372;BME280;62885;51.374;6.170;2023-05-29T03:17:39;101895.56;;;10.51;86.92
74372;BME280;62885;51.374;6.170;2023-05-29T03:20:05;101895.31;;;10.40;86.98
74372;BME280;62885;51.374;6.170;2023-05-29T03:22:32;101904.38;;;10.38;87.14
74372;BME280;62885;51.374;6.170;2023-05-29T03:24:57;101896.84;;;10.28;87.51
74372;BME280;62885;51.374;6.170;2023-05-29T03:27:23;101897.34;;;10.19;87.46
74372;BME280;62885;51.374;6.170;2023-05-29T03:29:48;101891.25;;;10.17;87.68
74372;BME280;62885;51.374;6.170;2023-05-29T03:32:14;101894.69;;;10.19;87.03
74372;BME280;62885;51.374;6.170;2023-05-29T03:34:39;101894.84;;;10.16;87.49
74372;BME280;62885;51.374;6.170;2023-05-29T03:37:05;101893.91;;;10.17;87.52
74372;BME280;62885;51.374;6.170;2023-05-29T03:39:31;101895.97;;;10.12;87.55
74372;BME280;62885;51.374;6.170;2023-05-29T03:41:56;101892.41;;;10.12;87.35
74372;BME280;62885;51.374;6.170;2023-05-29T03:44:21;101895.44;;;10.06;88.13
74372;BME280;62885;51.374;6.170;2023-05-29T03:46:47;101897.31;;;10.04;87.75
74372;BME280;62885;51.374;6.170;2023-05-29T03:49:12;101890.22;;;10.03;88.16
74372;BME280;62885;51.374;6.170;2023-05-29T03:51:38;101901.13;;;10.15;87.44
74372;BME280;62885;51.374;6.170;2023-05-29T03:54:03;101907.41;;;10.14;87.87
74372;BME280;62885;51.374;6.170;2023-05-29T03:56:29;101913.75;;;9.96;88.58
74372;BME280;62885;51.374;6.170;2023-05-29T03:58:55;101912.69;;;10.00;88.45
74372;BME280;62885;51.374;6.170;2023-05-29T04:01:21;101918.47;;;10.08;88.78
74372;BME280;62885;51.374;6.170;2023-05-29T04:03:46;101912.75;;;9.99;88.68
74372;BME280;62885;51.374;6.170;2023-05-29T04:06:11;101924.28;;;10.16;88.34
74372;BME280;62885;51.374;6.170;2023-05-29T04:08:38;101921.88;;;10.27;87.55
74372;BME280;62885;51.374;6.170;2023-05-29T04:11:03;101919.13;;;10.29;87.14
74372;BME280;62885;51.374;6.170;2023-05-29T04:13:29;101913.59;;;10.16;88.36
74372;BME280;62885;51.374;6.170;2023-05-29T04:15:54;101920.53;;;10.03;89.12
74372;BME280;62885;51.374;6.170;2023-05-29T04:18:20;101921.66;;;10.15;88.61
74372;BME280;62885;51.374;6.170;2023-05-29T04:20:46;101929.50;;;10.02;88.80
74372;BME280;62885;51.374;6.170;2023-05-29T04:23:12;101919.41;;;10.24;88.39
74372;BME280;62885;51.374;6.170;2023-05-29T04:25:38;101925.19;;;10.48;86.86
74372;BME280;62885;51.374;6.170;2023-05-29T04:28:03;101935.19;;;10.60;86.45
74372;BME280;62885;51.374;6.170;2023-05-29T04:30:29;101932.78;;;10.56;86.71
74372;BME280;62885;51.374;6.170;2023-05-29T04:32:54;101936.59;;;10.83;85.82
74372;BME280;62885;51.374;6.170;2023-05-29T04:35:20;101935.88;;;10.80;85.81
74372;BME280;62885;51.374;6.170;2023-05-29T04:37:47;101932.81;;;11.01;84.32
74372;BME280;62885;51.374;6.170;2023-05-29T04:40:12;101933.53;;;10.89;83.90
74372;BME280;62885;51.374;6.170;2023-05-29T04:42:39;101936.03;;;11.38;82.68
74372;BME280;62885;51.374;6.170;2023-05-29T04:45:07;101943.38;;;11.04;83.90
74372;BME280;62885;51.374;6.170;2023-05-29T04:47:35;101938.31;;;11.30;83.18
74372;BME280;62885;51.374;6.170;2023-05-29T04:50:17;101944.63;;;11.59;81.19
74372;BME280;62885;51.374;6.170;2023-05-29T04:52:43;101947.03;;;11.77;79.63
74372;BME280;62885;51.374;6.170;2023-05-29T04:55:09;101953.25;;;11.34;82.36
74372;BME280;62885;51.374;6.170;2023-05-29T04:57:35;101954.72;;;11.53;81.19
74372;BME280;62885;51.374;6.170;2023-05-29T05:00:01;101954.16;;;11.78;80.30
74372;BME280;62885;51.374;6.170;2023-05-29T05:02:31;101966.25;;;11.56;81.35
74372;BME280;62885;51.374;6.170;2023-05-29T05:04:59;101961.00;;;11.08;82.80
74372;BME280;62885;51.374;6.170;2023-05-29T05:07:24;101961.16;;;11.65;81.54
74372;BME280;62885;51.374;6.170;2023-05-29T05:09:50;101968.41;;;11.35;82.41
74372;BME280;62885;51.374;6.170;2023-05-29T05:12:16;101950.97;;;11.12;82.84
74372;BME280;62885;51.374;6.170;2023-05-29T05:14:41;101958.75;;;11.46;82.42
74372;BME280;62885;51.374;6.170;2023-05-29T05:17:06;101960.72;;;11.59;81.08
74372;BME280;62885;51.374;6.170;2023-05-29T05:19:32;101963.59;;;11.70;80.95
74372;BME280;62885;51.374;6.170;2023-05-29T05:21:57;101964.34;;;11.87;80.00
74372;BME280;62885;51.374;6.170;2023-05-29T05:24:22;101966.16;;;12.01;79.36
74372;BME280;62885;51.374;6.170;2023-05-29T05:26:48;101960.28;;;11.94;79.37
74372;BME280;62885;51.374;6.170;2023-05-29T05:29:13;101961.25;;;12.50;77.55
74372;BME280;62885;51.374;6.170;2023-05-29T05:31:39;101959.16;;;12.27;76.85
74372;BME280;62885;51.374;6.170;2023-05-29T05:34:04;101950.50;;;12.36;75.88
74372;BME280;62885;51.374;6.170;2023-05-29T05:36:29;101963.41;;;12.17;77.56
74372;BME280;62885;51.374;6.170;2023-05-29T05:38:56;101957.25;;;12.15;78.05
74372;BME280;62885;51.374;6.170;2023-05-29T05:41:21;101970.31;;;11.77;78.27
74372;BME280;62885;51.374;6.170;2023-05-29T05:43:47;101970.06;;;11.96;78.22
74372;BME280;62885;51.374;6.170;2023-05-29T05:46:12;101958.50;;;12.09;78.05
74372;BME280;62885;51.374;6.170;2023-05-29T05:48:40;101960.03;;;11.99;77.87
74372;BME280;62885;51.374;6.170;2023-05-29T05:51:05;101965.88;;;11.91;78.60
74372;BME280;62885;51.374;6.170;2023-05-29T05:53:31;101960.88;;;12.42;75.39
74372;BME280;62885;51.374;6.170;2023-05-29T05:55:56;101978.22;;;11.80;77.54
74372;BME280;62885;51.374;6.170;2023-05-29T05:58:22;101961.84;;;11.99;77.32
74372;BME280;62885;51.374;6.170;2023-05-29T06:00:47;101963.59;;;12.28;76.63
74372;BME280;62885;51.374;6.170;2023-05-29T06:03:13;101963.63;;;12.55;74.74
74372;BME280;62885;51.374;6.170;2023-05-29T06:05:39;101970.28;;;12.21;75.37
74372;BME280;62885;51.374;6.170;2023-05-29T06:08:06;101965.56;;;12.24;76.12
74372;BME280;62885;51.374;6.170;2023-05-29T06:10:33;101973.59;;;12.94;73.62
74372;BME280;62885;51.374;6.170;2023-05-29T06:12:58;101975.19;;;14.40;68.21
74372;BME280;62885;51.374;6.170;2023-05-29T06:15:24;101987.78;;;13.76;68.02
74372;BME280;62885;51.374;6.170;2023-05-29T06:17:49;101990.19;;;14.44;65.38
74372;BME280;62885;51.374;6.170;2023-05-29T06:20:16;101979.16;;;14.34;65.86
74372;BME280;62885;51.374;6.170;2023-05-29T06:22:42;101988.06;;;13.20;69.69
74372;BME280;62885;51.374;6.170;2023-05-29T06:25:08;101984.13;;;13.11;71.25
74372;BME280;62885;51.374;6.170;2023-05-29T06:27:34;101994.09;;;13.50;70.13
74372;BME280;62885;51.374;6.170;2023-05-29T06:30:00;102002.03;;;12.98;72.19
74372;BME280;62885;51.374;6.170;2023-05-29T06:32:25;101995.50;;;13.02;71.97
74372;BME280;62885;51.374;6.170;2023-05-29T06:34:52;101998.66;;;13.35;70.18
74372;BME280;62885;51.374;6.170;2023-05-29T06:37:18;102002.16;;;13.50;70.21
74372;BME280;62885;51.374;6.170;2023-05-29T06:39:46;102004.25;;;12.91;72.26
74372;BME280;62885;51.374;6.170;2023-05-29T06:42:11;101990.97;;;13.02;71.01
74372;BME280;62885;51.374;6.170;2023-05-29T06:44:37;101993.69;;;13.29;70.54
74372;BME280;62885;51.374;6.170;2023-05-29T06:47:02;101998.66;;;13.35;69.77
74372;BME280;62885;51.374;6.170;2023-05-29T06:49:27;101999.78;;;13.19;69.85
74372;BME280;62885;51.374;6.170;2023-05-29T06:51:53;101994.84;;;12.98;71.68
74372;BME280;62885;51.374;6.170;2023-05-29T06:54:18;102002.63;;;13.30;69.87
74372;BME280;62885;51.374;6.170;2023-05-29T06:56:44;102000.88;;;13.29;69.04
74372;BME280;62885;51.374;6.170;2023-05-29T06:59:09;102002.88;;;13.12;70.30
74372;BME280;62885;51.374;6.170;2023-05-29T07:01:34;102003.63;;;13.41;69.49
74372;BME280;62885;51.374;6.170;2023-05-29T07:04:00;101998.56;;;14.27;66.53
74372;BME280;62885;51.374;6.170;2023-05-29T07:06:26;102004.88;;;14.76;64.53
74372;BME280;62885;51.374;6.170;2023-05-29T07:08:51;102007.41;;;14.29;65.96
74372;BME280;62885;51.374;6.170;2023-05-29T07:11:16;102006.50;;;13.26;68.31
74372;BME280;62885;51.374;6.170;2023-05-29T07:13:42;102007.72;;;13.47;69.08
74372;BME280;62885;51.374;6.170;2023-05-29T07:16:07;102004.53;;;13.54;68.03
74372;BME280;62885;51.374;6.170;2023-05-29T07:18:32;102008.38;;;13.38;70.28
74372;BME280;62885;51.374;6.170;2023-05-29T07:20:59;102017.00;;;13.16;70.42
74372;BME280;62885;51.374;6.170;2023-05-29T07:23:25;102003.78;;;13.26;70.79
74372;BME280;62885;51.374;6.170;2023-05-29T07:25:50;102005.44;;;13.68;68.26
74372;BME280;62885;51.374;6.170;2023-05-29T07:28:16;102006.81;;;13.61;68.10
74372;BME280;62885;51.374;6.170;2023-05-29T07:30:41;102002.97;;;13.90;68.03
74372;BME280;62885;51.374;6.170;2023-05-29T07:33:06;102010.78;;;13.55;69.07
74372;BME280;62885;51.374;6.170;2023-05-29T07:35:32;102019.03;;;13.52;68.89
74372;BME280;62885;51.374;6.170;2023-05-29T07:37:58;102013.63;;;14.04;67.39
74372;BME280;62885;51.374;6.170;2023-05-29T07:40:24;102012.69;;;13.53;69.46
74372;BME280;62885;51.374;6.170;2023-05-29T07:42:49;102016.38;;;13.65;68.71
74372;BME280;62885;51.374;6.170;2023-05-29T07:45:14;102024.75;;;13.47;68.93
74372;BME280;62885;51.374;6.170;2023-05-29T07:47:40;102021.72;;;13.91;68.00
74372;BME280;62885;51.374;6.170;2023-05-29T07:50:05;102023.91;;;13.60;68.36
74372;BME280;62885;51.374;6.170;2023-05-29T07:52:31;102026.97;;;13.41;68.57
74372;BME280;62885;51.374;6.170;2023-05-29T07:54:57;102025.28;;;13.52;68.73
74372;BME280;62885;51.374;6.170;2023-05-29T07:57:22;102017.47;;;13.62;68.90
74372;BME280;62885;51.374;6.170;2023-05-29T07:59:48;102025.78;;;13.72;67.90
74372;BME280;62885;51.374;6.170;2023-05-29T08:02:16;102021.47;;;13.82;67.84
74372;BME280;62885;51.374;6.170;2023-05-29T08:04:42;102024.31;;;13.53;68.69
74372;BME280;62885;51.374;6.170;2023-05-29T08:07:07;102023.34;;;14.07;67.35
74372;BME280;62885;51.374;6.170;2023-05-29T08:09:32;102026.22;;;13.78;67.27
74372;BME280;62885;51.374;6.170;2023-05-29T08:11:58;102029.34;;;13.72;67.52
74372;BME280;62885;51.374;6.170;2023-05-29T08:14:26;102032.63;;;14.03;67.30
74372;BME280;62885;51.374;6.170;2023-05-29T08:16:51;102034.31;;;14.16;66.50
74372;BME280;62885;51.374;6.170;2023-05-29T08:19:16;102037.34;;;14.24;67.00
74372;BME280;62885;51.374;6.170;2023-05-29T08:21:42;102040.47;;;14.18;66.03
74372;BME280;62885;51.374;6.170;2023-05-29T08:24:07;102044.91;;;14.32;65.79
74372;BME280;62885;51.374;6.170;2023-05-29T08:26:34;102025.72;;;14.24;65.95
74372;BME280;62885;51.374;6.170;2023-05-29T08:29:00;102033.31;;;13.92;66.03
74372;BME280;62885;51.374;6.170;2023-05-29T08:31:25;102038.88;;;14.03;66.11
74372;BME280;62885;51.374;6.170;2023-05-29T08:33:52;102050.38;;;14.05;65.70
74372;BME280;62885;51.374;6.170;2023-05-29T08:36:17;102036.28;;;14.65;64.61
74372;BME280;62885;51.374;6.170;2023-05-29T08:38:43;102036.72;;;14.59;64.80
74372;BME280;62885;51.374;6.170;2023-05-29T08:41:10;102035.00;;;14.45;64.51
74372;BME280;62885;51.374;6.170;2023-05-29T08:43:40;102039.66;;;14.56;64.40
74372;BME280;62885;51.374;6.170;2023-05-29T08:46:06;102038.44;;;14.72;63.68
74372;BME280;62885;51.374;6.170;2023-05-29T08:48:32;102041.44;;;14.68;63.91
74372;BME280;62885;51.374;6.170;2023-05-29T08:51:02;102044.94;;;15.06;63.59
74372;BME280;62885;51.374;6.170;2023-05-29T08:53:28;102044.13;;;14.68;63.14
74372;BME280;62885;51.374;6.170;2023-05-29T08:55:53;102051.25;;;14.69;63.29
74372;BME280;62885;51.374;6.170;2023-05-29T08:58:21;102056.22;;;14.62;63.44
74372;BME280;62885;51.374;6.170;2023-05-29T09:00:47;102047.34;;;14.86;63.47
74372;BME280;62885;51.374;6.170;2023-05-29T09:03:14;102052.22;;;14.80;63.60
74372;BME280;62885;51.374;6.170;2023-05-29T09:05:40;102051.47;;;15.15;63.12
74372;BME280;62885;51.374;6.170;2023-05-29T09:08:11;102049.81;;;15.01;62.06
74372;BME280;62885;51.374;6.170;2023-05-29T09:10:41;102047.13;;;15.25;62.20
74372;BME280;62885;51.374;6.170;2023-05-29T09:13:08;102055.44;;;15.46;61.59
74372;BME280;62885;51.374;6.170;2023-05-29T09:15:35;102058.53;;;15.05;62.28
74372;BME280;62885;51.374;6.170;2023-05-29T09:18:00;102060.63;;;15.25;61.73
74372;BME280;62885;51.374;6.170;2023-05-29T09:20:26;102059.94;;;15.34;62.27
74372;BME280;62885;51.374;6.170;2023-05-29T09:22:57;102061.53;;;15.84;61.04
74372;BME280;62885;51.374;6.170;2023-05-29T09:25:29;102061.81;;;15.57;60.88
74372;BME280;62885;51.374;6.170;2023-05-29T09:28:03;102062.78;;;15.91;60.06
74372;BME280;62885;51.374;6.170;2023-05-29T09:33:00;102063.00;;;15.77;59.96
74372;BME280;62885;51.374;6.170;2023-05-29T09:35:27;102079.28;;;15.28;59.81
74372;BME280;62885;51.374;6.170;2023-05-29T09:37:59;102076.06;;;15.47;59.73
74372;BME280;62885;51.374;6.170;2023-05-29T09:40:24;102063.88;;;15.54;60.45
74372;BME280;62885;51.374;6.170;2023-05-29T09:42:50;102062.19;;;15.88;58.87
74372;BME280;62885;51.374;6.170;2023-05-29T09:45:20;102074.88;;;15.75;59.28
74372;BME280;62885;51.374;6.170;2023-05-29T09:47:45;102064.44;;;15.70;59.68
74372;BME280;62885;51.374;6.170;2023-05-29T09:50:20;102071.81;;;15.79;58.77
74372;BME280;62885;51.374;6.170;2023-05-29T09:52:50;102078.41;;;15.28;59.57
74372;BME280;62885;51.374;6.170;2023-05-29T09:55:20;102074.94;;;15.62;58.88
74372;BME280;62885;51.374;6.170;2023-05-29T09:57:46;102084.69;;;15.99;58.15
74372;BME280;62885;51.374;6.170;2023-05-29T10:00:13;102070.16;;;15.89;58.55
74372;BME280;62885;51.374;6.170;2023-05-29T10:02:39;102076.81;;;15.73;58.34
74372;BME280;62885;51.374;6.170;2023-05-29T10:05:06;102070.69;;;16.06;58.07
74372;BME280;62885;51.374;6.170;2023-05-29T10:07:36;102074.06;;;16.31;57.30
74372;BME280;62885;51.374;6.170;2023-05-29T10:10:04;102064.25;;;16.30;57.16
74372;BME280;62885;51.374;6.170;2023-05-29T10:12:36;102058.91;;;15.95;57.36
74372;BME280;62885;51.374;6.170;2023-05-29T10:15:08;102049.47;;;16.12;57.75
74372;BME280;62885;51.374;6.170;2023-05-29T10:17:37;102054.47;;;16.74;55.92
74372;BME280;62885;51.374;6.170;2023-05-29T10:20:05;102044.53;;;16.63;56.15
74372;BME280;62885;51.374;6.170;2023-05-29T10:22:32;102039.94;;;16.53;55.55
74372;BME280;62885;51.374;6.170;2023-05-29T10:24:59;102037.66;;;16.59;56.62
74372;BME280;62885;51.374;6.170;2023-05-29T10:27:26;102032.31;;;16.91;55.40
74372;BME280;62885;51.374;6.170;2023-05-29T10:35:17;102045.34;;;17.08;54.99
74372;BME280;62885;51.374;6.170;2023-05-29T10:40:12;102043.03;;;16.93;55.26
74372;BME280;62885;51.374;6.170;2023-05-29T10:45:03;102047.66;;;17.13;54.65
74372;BME280;62885;51.374;6.170;2023-05-29T10:47:29;102030.84;;;16.98;53.97
74372;BME280;62885;51.374;6.170;2023-05-29T10:49:59;102048.16;;;17.18;53.98
74372;BME280;62885;51.374;6.170;2023-05-29T10:52:25;102038.34;;;17.06;54.10
74372;BME280;62885;51.374;6.170;2023-05-29T10:54:53;102044.09;;;17.12;53.48
74372;BME280;62885;51.374;6.170;2023-05-29T10:57:21;102041.56;;;17.00;54.30
74372;BME280;62885;51.374;6.170;2023-05-29T10:59:47;102036.06;;;17.33;53.06
74372;BME280;62885;51.374;6.170;2023-05-29T11:02:17;102039.19;;;16.95;53.65
74372;BME280;62885;51.374;6.170;2023-05-29T11:04:44;102041.25;;;17.14;53.39
74372;BME280;62885;51.374;6.170;2023-05-29T11:07:35;102039.59;;;17.45;52.90
74372;BME280;62885;51.374;6.170;2023-05-29T11:10:15;102043.03;;;17.47;52.78
74372;BME280;62885;51.374;6.170;2023-05-29T11:12:56;102035.78;;;16.93;53.94
74372;BME280;62885;51.374;6.170;2023-05-29T11:15:24;102025.38;;;17.20;53.16
74372;BME280;62885;51.374;6.170;2023-05-29T11:17:49;102023.34;;;17.45;52.95
74372;BME280;62885;51.374;6.170;2023-05-29T11:20:36;102021.31;;;17.58;53.26
74372;BME280;62885;51.374;6.170;2023-05-29T11:25:29;102024.88;;;17.58;52.22
74372;BME280;62885;51.374;6.170;2023-05-29T11:27:59;102022.88;;;17.72;51.14
74372;BME280;62885;51.374;6.170;2023-05-29T11:30:24;102015.13;;;17.24;52.18
74372;BME280;62885;51.374;6.170;2023-05-29T11:32:52;102028.13;;;17.52;52.29
74372;BME280;62885;51.374;6.170;2023-05-29T11:35:19;102016.22;;;17.96;51.04
74372;BME280;62885;51.374;6.170;2023-05-29T11:37:47;102021.22;;;18.01;50.93
74372;BME280;62885;51.374;6.170;2023-05-29T11:40:13;102027.34;;;17.93;51.34
74372;BME280;62885;51.374;6.170;2023-05-29T11:42:44;102026.97;;;17.55;50.87
74372;BME280;62885;51.374;6.170;2023-05-29T11:47:54;102016.75;;;18.11;51.37
74372;BME280;62885;51.374;6.170;2023-05-29T11:50:30;102013.16;;;17.90;51.23
74372;BME280;62885;51.374;6.170;2023-05-29T11:52:57;102014.94;;;18.21;50.54
74372;BME280;62885;51.374;6.170;2023-05-29T11:55:24;102017.56;;;18.32;50.34
74372;BME280;62885;51.374;6.170;2023-05-29T11:57:56;102007.66;;;18.52;49.86
74372;BME280;62885;51.374;6.170;2023-05-29T12:00:22;102003.94;;;18.43;49.50
74372;BME280;62885;51.374;6.170;2023-05-29T12:02:47;102016.84;;;18.30;49.78
74372;BME280;62885;51.374;6.170;2023-05-29T12:05:16;102017.41;;;18.03;50.18
74372;BME280;62885;51.374;6.170;2023-05-29T12:07:55;102021.56;;;18.28;50.11
74372;BME280;62885;51.374;6.170;2023-05-29T12:10:22;102013.09;;;18.52;49.36
74372;BME280;62885;51.374;6.170;2023-05-29T12:12:53;102020.44;;;18.10;49.71
74372;BME280;62885;51.374;6.170;2023-05-29T12:15:19;102007.38;;;18.45;49.64
74372;BME280;62885;51.374;6.170;2023-05-29T12:17:45;102002.09;;;18.54;49.02
74372;BME280;62885;51.374;6.170;2023-05-29T12:20:12;102011.34;;;18.11;50.27
74372;BME280;62885;51.374;6.170;2023-05-29T12:22:38;102013.78;;;17.93;49.24
74372;BME280;62885;51.374;6.170;2023-05-29T12:25:12;102013.63;;;18.16;49.62
74372;BME280;62885;51.374;6.170;2023-05-29T12:27:44;102013.22;;;17.79;50.13
74372;BME280;62885;51.374;6.170;2023-05-29T12:30:20;102009.94;;;17.96;49.91
74372;BME280;62885;51.374;6.170;2023-05-29T12:32:47;102021.59;;;18.38;49.44
74372;BME280;62885;51.374;6.170;2023-05-29T12:35:14;102015.22;;;18.48;48.23
74372;BME280;62885;51.374;6.170;2023-05-29T12:37:47;102025.59;;;18.13;48.87
74372;BME280;62885;51.374;6.170;2023-05-29T12:40:25;102025.78;;;18.21;48.46
74372;BME280;62885;51.374;6.170;2023-05-29T12:43:02;102019.25;;;17.82;48.51
74372;BME280;62885;51.374;6.170;2023-05-29T12:45:31;102018.59;;;18.11;48.27
74372;BME280;62885;51.374;6.170;2023-05-29T12:47:59;102024.88;;;18.11;46.99
74372;BME280;62885;51.374;6.170;2023-05-29T12:50:30;102010.22;;;18.44;46.72
74372;BME280;62885;51.374;6.170;2023-05-29T12:53:09;102006.78;;;18.72;46.47
74372;BME280;62885;51.374;6.170;2023-05-29T12:55:37;102014.81;;;18.53;47.24
74372;BME280;62885;51.374;6.170;2023-05-29T12:58:13;102020.22;;;18.74;46.97
74372;BME280;62885;51.374;6.170;2023-05-29T13:00:40;102013.59;;;18.57;47.18
74372;BME280;62885;51.374;6.170;2023-05-29T13:03:06;102012.84;;;18.85;46.13
74372;BME280;62885;51.374;6.170;2023-05-29T13:05:32;102023.25;;;18.80;46.34
74372;BME280;62885;51.374;6.170;2023-05-29T13:07:58;102017.84;;;18.90;45.51
74372;BME280;62885;51.374;6.170;2023-05-29T13:10:25;102021.84;;;18.86;45.90
74372;BME280;62885;51.374;6.170;2023-05-29T13:12:52;102026.88;;;18.60;46.28